Terminal Aerodrome Forecast
Issued by NWS Caribou, ME

Home | Current Version | Previous Version | Text Only | Print | Product List | Glossary On
Versions: 1 2 3 4 5 6 7 8 9 10 11 12 13 14 15 16 17
000
FTUS41 KCAR 022327
TAFBGR
TAF
KBGR 022327Z 0300/0324 01008KT 2SM RA BR BKN008 OVC015
     FM030400 01005KT 2SM -DZ BR OVC008
     FM030900 36003KT 3/4SM BR OVC002
     FM031200 35005KT P6SM OVC015
     FM031900 01005KT P6SM BKN040=

USA.gov is the U.S. government's official web portal to all federal, state and local government web resources and services.